Terminal Aerodrome Forecast
Issued by NWS

Home | Current Version | Previous Version | Text Only | Print | Product List | Glossary On
Versions: 1 2 3 4 5 6 7 8 9 10 11 12 13 14 15 16 17 18 19 20 21 22 23 24 25 26 27 28 29 30 31 32 33 34 35 36 37 38 39 40 41 42 43 44
773
FTUS41 KBOX 311400 AAA
TAFACK
TAF AMD
KACK 311400Z 3114/0112 23012KT P6SM OVC050
      TEMPO 3114/3116 4SM -SHRA BR OVC035
     FM311600 22010KT 6SM BR OVC010
     FM311900 22012KT P6SM BKN050
     FM010000 22008KT P6SM SCT200
     FM010300 26008KT 3SM BR SCT250
     FM010800 35009KT P6SM FEW250=

USA.gov is the U.S. government's official web portal to all federal, state and local government web resources and services.